sensor_id;sensor_type;location;lat;lon;timestamp;P1;durP1;ratioP1;P2;durP2;ratioP2
69910;SDS011;63555;49.920;17.868;2023-07-13T00:04:10;14.77;;;2.92;;
69910;SDS011;63555;49.920;17.868;2023-07-13T00:09:14;11.77;;;3.23;;
69910;SDS011;63555;49.920;17.868;2023-07-13T00:14:16;8.23;;;3.53;;
69910;SDS011;63555;49.920;17.868;2023-07-13T00:19:16;11.03;;;4.07;;
69910;SDS011;63555;49.920;17.868;2023-07-13T00:24:17;12.60;;;3.10;;
69910;SDS011;63555;49.920;17.868;2023-07-13T00:29:23;6.68;;;3.47;;
69910;SDS011;63555;49.920;17.868;2023-07-13T00:34:25;8.15;;;3.45;;
69910;SDS011;63555;49.920;17.868;2023-07-13T00:39:26;5.90;;;2.77;;
69910;SDS011;63555;49.920;17.868;2023-07-13T00:44:27;7.47;;;2.90;;
69910;SDS011;63555;49.920;17.868;2023-07-13T00:49:29;8.65;;;3.10;;
69910;SDS011;63555;49.920;17.868;2023-07-13T00:54:39;10.70;;;3.60;;
69910;SDS011;63555;49.920;17.868;2023-07-13T00:59:45;7.97;;;2.97;;
69910;SDS011;63555;49.920;17.868;2023-07-13T01:04:49;6.60;;;3.07;;
69910;SDS011;63555;49.920;17.868;2023-07-13T01:09:49;7.75;;;2.92;;
69910;SDS011;63555;49.920;17.868;2023-07-13T01:14:56;7.82;;;2.92;;
69910;SDS011;63555;49.920;17.868;2023-07-13T01:19:57;7.40;;;3.27;;
69910;SDS011;63555;49.920;17.868;2023-07-13T01:24:57;10.63;;;3.20;;
69910;SDS011;63555;49.920;17.868;2023-07-13T01:29:58;12.90;;;3.57;;
69910;SDS011;63555;49.920;17.868;2023-07-13T01:35:03;13.65;;;3.70;;
69910;SDS011;63555;49.920;17.868;2023-07-13T01:40:04;8.47;;;3.63;;
69910;SDS011;63555;49.920;17.868;2023-07-13T01:45:05;9.23;;;3.10;;
69910;SDS011;63555;49.920;17.868;2023-07-13T01:50:06;7.37;;;3.57;;
69910;SDS011;63555;49.920;17.868;2023-07-13T01:55:07;17.35;;;3.60;;
69910;SDS011;63555;49.920;17.868;2023-07-13T02:00:09;9.27;;;3.17;;
69910;SDS011;63555;49.920;17.868;2023-07-13T02:05:10;12.25;;;3.53;;
69910;SDS011;63555;49.920;17.868;2023-07-13T02:10:11;19.00;;;4.53;;
69910;SDS011;63555;49.920;17.868;2023-07-13T02:15:12;17.07;;;4.60;;
69910;SDS011;63555;49.920;17.868;2023-07-13T02:20:12;16.60;;;4.17;;
69910;SDS011;63555;49.920;17.868;2023-07-13T02:25:13;11.57;;;3.80;;
69910;SDS011;63555;49.920;17.868;2023-07-13T02:30:14;8.70;;;2.95;;
69910;SDS011;63555;49.920;17.868;2023-07-13T02:35:14;9.30;;;3.70;;
69910;SDS011;63555;49.920;17.868;2023-07-13T02:40:15;8.37;;;3.13;;
69910;SDS011;63555;49.920;17.868;2023-07-13T02:45:15;13.60;;;3.87;;
69910;SDS011;63555;49.920;17.868;2023-07-13T02:50:16;13.73;;;3.90;;
69910;SDS011;63555;49.920;17.868;2023-07-13T02:55:16;20.95;;;3.80;;
69910;SDS011;63555;49.920;17.868;2023-07-13T03:00:17;12.07;;;3.80;;
69910;SDS011;63555;49.920;17.868;2023-07-13T03:05:17;19.43;;;4.13;;
69910;SDS011;63555;49.920;17.868;2023-07-13T03:10:18;12.67;;;3.53;;
69910;SDS011;63555;49.920;17.868;2023-07-13T03:15:18;14.53;;;3.50;;
69910;SDS011;63555;49.920;17.868;2023-07-13T03:20:19;21.33;;;3.80;;
69910;SDS011;63555;49.920;17.868;2023-07-13T03:25:19;15.00;;;3.60;;
69910;SDS011;63555;49.920;17.868;2023-07-13T03:30:20;12.57;;;3.53;;
69910;SDS011;63555;49.920;17.868;2023-07-13T03:35:20;9.67;;;2.83;;
69910;SDS011;63555;49.920;17.868;2023-07-13T03:40:20;11.53;;;3.30;;
69910;SDS011;63555;49.920;17.868;2023-07-13T03:45:21;10.20;;;3.40;;
69910;SDS011;63555;49.920;17.868;2023-07-13T03:50:21;11.05;;;3.45;;
69910;SDS011;63555;49.920;17.868;2023-07-13T03:55:22;14.47;;;3.70;;
69910;SDS011;63555;49.920;17.868;2023-07-13T04:00:22;10.93;;;3.33;;
69910;SDS011;63555;49.920;17.868;2023-07-13T04:05:23;8.40;;;3.30;;
69910;SDS011;63555;49.920;17.868;2023-07-13T04:10:23;13.07;;;3.10;;
69910;SDS011;63555;49.920;17.868;2023-07-13T04:15:23;7.10;;;3.00;;
69910;SDS011;63555;49.920;17.868;2023-07-13T04:20:24;13.33;;;3.20;;
69910;SDS011;63555;49.920;17.868;2023-07-13T04:25:25;9.17;;;3.03;;
69910;SDS011;63555;49.920;17.868;2023-07-13T04:30:26;9.63;;;3.15;;
69910;SDS011;63555;49.920;17.868;2023-07-13T04:35:26;13.27;;;3.50;;
69910;SDS011;63555;49.920;17.868;2023-07-13T04:40:27;9.47;;;2.70;;
69910;SDS011;63555;49.920;17.868;2023-07-13T04:45:29;8.20;;;2.92;;
69910;SDS011;63555;49.920;17.868;2023-07-13T04:50:30;9.18;;;3.20;;
69910;SDS011;63555;49.920;17.868;2023-07-13T04:55:31;5.37;;;2.83;;
69910;SDS011;63555;49.920;17.868;2023-07-13T05:00:32;6.83;;;2.97;;
69910;SDS011;63555;49.920;17.868;2023-07-13T05:05:32;8.73;;;3.45;;
69910;SDS011;63555;49.920;17.868;2023-07-13T05:10:34;6.82;;;3.35;;
69910;SDS011;63555;49.920;17.868;2023-07-13T05:15:35;9.52;;;3.67;;
69910;SDS011;63555;49.920;17.868;2023-07-13T05:20:36;6.67;;;3.50;;
69910;SDS011;63555;49.920;17.868;2023-07-13T05:25:36;8.67;;;3.47;;
69910;SDS011;63555;49.920;17.868;2023-07-13T05:30:37;7.93;;;4.00;;
69910;SDS011;63555;49.920;17.868;2023-07-13T05:35:37;12.93;;;3.77;;
69910;SDS011;63555;49.920;17.868;2023-07-13T05:40:37;11.37;;;4.43;;
69910;SDS011;63555;49.920;17.868;2023-07-13T05:45:38;7.63;;;4.40;;
69910;SDS011;63555;49.920;17.868;2023-07-13T05:50:39;10.95;;;4.47;;
69910;SDS011;63555;49.920;17.868;2023-07-13T05:55:40;12.70;;;4.03;;
69910;SDS011;63555;49.920;17.868;2023-07-13T06:00:42;12.55;;;4.63;;
69910;SDS011;63555;49.920;17.868;2023-07-13T06:05:43;7.70;;;4.30;;
69910;SDS011;63555;49.920;17.868;2023-07-13T06:10:44;7.97;;;4.47;;
69910;SDS011;63555;49.920;17.868;2023-07-13T06:15:48;10.13;;;5.23;;
69910;SDS011;63555;49.920;17.868;2023-07-13T06:20:49;11.82;;;5.32;;
69910;SDS011;63555;49.920;17.868;2023-07-13T06:25:49;9.93;;;4.40;;
69910;SDS011;63555;49.920;17.868;2023-07-13T06:30:50;9.50;;;3.93;;
69910;SDS011;63555;49.920;17.868;2023-07-13T06:35:50;9.57;;;4.23;;
69910;SDS011;63555;49.920;17.868;2023-07-13T06:40:51;11.10;;;3.97;;
69910;SDS011;63555;49.920;17.868;2023-07-13T06:45:54;6.83;;;3.60;;
69910;SDS011;63555;49.920;17.868;2023-07-13T06:50:55;10.40;;;3.77;;
69910;SDS011;63555;49.920;17.868;2023-07-13T06:55:56;9.33;;;4.20;;
69910;SDS011;63555;49.920;17.868;2023-07-13T07:00:57;9.27;;;3.80;;
69910;SDS011;63555;49.920;17.868;2023-07-13T07:06:19;8.93;;;3.90;;
69910;SDS011;63555;49.920;17.868;2023-07-13T07:11:23;4.93;;;3.10;;
69910;SDS011;63555;49.920;17.868;2023-07-13T07:16:25;8.00;;;3.33;;
69910;SDS011;63555;49.920;17.868;2023-07-13T07:21:26;4.68;;;2.92;;
69910;SDS011;63555;49.920;17.868;2023-07-13T07:26:27;10.15;;;4.07;;
69910;SDS011;63555;49.920;17.868;2023-07-13T07:31:27;9.50;;;4.95;;
69910;SDS011;63555;49.920;17.868;2023-07-13T07:36:27;16.95;;;5.70;;
69910;SDS011;63555;49.920;17.868;2023-07-13T07:41:29;10.77;;;5.70;;
69910;SDS011;63555;49.920;17.868;2023-07-13T07:46:29;14.20;;;6.00;;
69910;SDS011;63555;49.920;17.868;2023-07-13T07:51:30;8.43;;;5.10;;
69910;SDS011;63555;49.920;17.868;2023-07-13T07:56:31;6.40;;;3.40;;
69910;SDS011;63555;49.920;17.868;2023-07-13T08:01:32;9.43;;;3.20;;
69910;SDS011;63555;49.920;17.868;2023-07-13T08:06:32;11.23;;;3.33;;
69910;SDS011;63555;49.920;17.868;2023-07-13T08:11:36;13.82;;;3.20;;
69910;SDS011;63555;49.920;17.868;2023-07-13T08:16:36;6.68;;;2.67;;
69910;SDS011;63555;49.920;17.868;2023-07-13T08:21:36;15.27;;;3.30;;
69910;SDS011;63555;49.920;17.868;2023-07-13T08:26:37;25.65;;;4.05;;
69910;SDS011;63555;49.920;17.868;2023-07-13T08:31:38;47.83;;;5.93;;
69910;SDS011;63555;49.920;17.868;2023-07-13T08:36:39;58.60;;;6.87;;
69910;SDS011;63555;49.920;17.868;2023-07-13T08:41:39;15.93;;;5.20;;
69910;SDS011;63555;49.920;17.868;2023-07-13T08:46:40;35.30;;;5.63;;
69910;SDS011;63555;49.920;17.868;2023-07-13T08:51:52;28.27;;;5.30;;
69910;SDS011;63555;49.920;17.868;2023-07-13T08:56:58;19.67;;;5.43;;
69910;SDS011;63555;49.920;17.868;2023-07-13T09:18:16;13.02;;;4.60;;
69910;SDS011;63555;49.920;17.868;2023-07-13T09:23:23;17.20;;;4.50;;
69910;SDS011;63555;49.920;17.868;2023-07-13T09:28:29;9.50;;;3.93;;
69910;SDS011;63555;49.920;17.868;2023-07-13T09:33:37;7.47;;;4.30;;
69910;SDS011;63555;49.920;17.868;2023-07-13T09:38:38;9.00;;;3.93;;
69910;SDS011;63555;49.920;17.868;2023-07-13T09:43:39;8.18;;;3.75;;
69910;SDS011;63555;49.920;17.868;2023-07-13T09:49:10;6.47;;;3.60;;
69910;SDS011;63555;49.920;17.868;2023-07-13T09:54:17;6.25;;;3.60;;
69910;SDS011;63555;49.920;17.868;2023-07-13T09:59:21;9.73;;;4.30;;
69910;SDS011;63555;49.920;17.868;2023-07-13T10:04:31;7.83;;;3.77;;
69910;SDS011;63555;49.920;17.868;2023-07-13T10:09:32;5.50;;;3.28;;
69910;SDS011;63555;49.920;17.868;2023-07-13T10:14:33;7.17;;;2.93;;
69910;SDS011;63555;49.920;17.868;2023-07-13T10:19:34;4.97;;;2.83;;
69910;SDS011;63555;49.920;17.868;2023-07-13T10:24:35;5.38;;;2.20;;
69910;SDS011;63555;49.920;17.868;2023-07-13T10:29:39;4.45;;;2.17;;
69910;SDS011;63555;49.920;17.868;2023-07-13T10:34:48;3.97;;;2.60;;
69910;SDS011;63555;49.920;17.868;2023-07-13T10:39:50;4.78;;;2.47;;
69910;SDS011;63555;49.920;17.868;2023-07-13T10:44:53;3.63;;;2.03;;
69910;SDS011;63555;49.920;17.868;2023-07-13T10:49:54;4.17;;;2.47;;
69910;SDS011;63555;49.920;17.868;2023-07-13T10:54:58;3.50;;;2.03;;
69910;SDS011;63555;49.920;17.868;2023-07-13T11:10:53;5.55;;;2.35;;
69910;SDS011;63555;49.920;17.868;2023-07-13T11:15:55;3.90;;;2.10;;
69910;SDS011;63555;49.920;17.868;2023-07-13T11:21:12;3.83;;;2.10;;
69910;SDS011;63555;49.920;17.868;2023-07-13T11:31:42;3.03;;;1.90;;
69910;SDS011;63555;49.920;17.868;2023-07-13T11:36:44;3.17;;;1.50;;
69910;SDS011;63555;49.920;17.868;2023-07-13T11:41:48;3.10;;;1.40;;
69910;SDS011;63555;49.920;17.868;2023-07-13T11:46:53;4.20;;;1.60;;
69910;SDS011;63555;49.920;17.868;2023-07-13T11:51:55;4.78;;;1.55;;
69910;SDS011;63555;49.920;17.868;2023-07-13T11:57:10;4.18;;;1.38;;
69910;SDS011;63555;49.920;17.868;2023-07-13T12:02:37;3.13;;;1.37;;
69910;SDS011;63555;49.920;17.868;2023-07-13T12:07:42;3.63;;;1.45;;
69910;SDS011;63555;49.920;17.868;2023-07-13T12:12:52;3.27;;;1.80;;
69910;SDS011;63555;49.920;17.868;2023-07-13T12:17:57;4.23;;;1.67;;
69910;SDS011;63555;49.920;17.868;2023-07-13T12:22:58;3.77;;;1.43;;
69910;SDS011;63555;49.920;17.868;2023-07-13T12:27:58;2.53;;;1.20;;
69910;SDS011;63555;49.920;17.868;2023-07-13T12:33:00;4.33;;;1.40;;
69910;SDS011;63555;49.920;17.868;2023-07-13T12:38:02;4.57;;;1.70;;
69910;SDS011;63555;49.920;17.868;2023-07-13T12:43:03;2.63;;;1.50;;
69910;SDS011;63555;49.920;17.868;2023-07-13T12:48:14;3.03;;;1.50;;
69910;SDS011;63555;49.920;17.868;2023-07-13T12:53:19;3.63;;;1.60;;
69910;SDS011;63555;49.920;17.868;2023-07-13T12:58:38;5.00;;;1.38;;
69910;SDS011;63555;49.920;17.868;2023-07-13T13:03:52;4.50;;;1.60;;
69910;SDS011;63555;49.920;17.868;2023-07-13T13:08:56;2.40;;;1.23;;
69910;SDS011;63555;49.920;17.868;2023-07-13T13:14:00;3.00;;;1.63;;
69910;SDS011;63555;49.920;17.868;2023-07-13T13:19:10;2.80;;;1.77;;
69910;SDS011;63555;49.920;17.868;2023-07-13T13:24:16;3.90;;;1.30;;
69910;SDS011;63555;49.920;17.868;2023-07-13T13:29:21;3.08;;;1.60;;
69910;SDS011;63555;49.920;17.868;2023-07-13T13:34:24;3.72;;;1.65;;
69910;SDS011;63555;49.920;17.868;2023-07-13T13:39:28;2.80;;;1.80;;
69910;SDS011;63555;49.920;17.868;2023-07-13T13:44:34;2.50;;;1.75;;
69910;SDS011;63555;49.920;17.868;2023-07-13T13:49:34;2.50;;;1.10;;
69910;SDS011;63555;49.920;17.868;2023-07-13T13:54:36;3.20;;;1.90;;
69910;SDS011;63555;49.920;17.868;2023-07-13T13:59:36;3.70;;;1.60;;
69910;SDS011;63555;49.920;17.868;2023-07-13T14:04:39;2.87;;;1.70;;
69910;SDS011;63555;49.920;17.868;2023-07-13T14:09:39;2.43;;;1.30;;
69910;SDS011;63555;49.920;17.868;2023-07-13T14:14:40;4.10;;;1.90;;
69910;SDS011;63555;49.920;17.868;2023-07-13T14:19:40;3.10;;;2.03;;
69910;SDS011;63555;49.920;17.868;2023-07-13T14:24:41;5.10;;;1.80;;
69910;SDS011;63555;49.920;17.868;2023-07-13T14:29:42;3.33;;;2.00;;
69910;SDS011;63555;49.920;17.868;2023-07-13T14:34:42;3.10;;;1.40;;
69910;SDS011;63555;49.920;17.868;2023-07-13T14:39:43;4.03;;;1.87;;
69910;SDS011;63555;49.920;17.868;2023-07-13T14:44:44;7.13;;;1.85;;
69910;SDS011;63555;49.920;17.868;2023-07-13T14:49:45;4.07;;;2.10;;
69910;SDS011;63555;49.920;17.868;2023-07-13T14:54:47;3.30;;;1.80;;
69910;SDS011;63555;49.920;17.868;2023-07-13T14:59:48;3.47;;;1.70;;
69910;SDS011;63555;49.920;17.868;2023-07-13T15:04:49;3.10;;;1.40;;
69910;SDS011;63555;49.920;17.868;2023-07-13T15:09:49;2.83;;;1.03;;
69910;SDS011;63555;49.920;17.868;2023-07-13T15:14:51;3.45;;;1.10;;
69910;SDS011;63555;49.920;17.868;2023-07-13T15:19:51;2.40;;;1.30;;
69910;SDS011;63555;49.920;17.868;2023-07-13T15:24:51;3.13;;;1.70;;
69910;SDS011;63555;49.920;17.868;2023-07-13T15:29:52;2.47;;;1.37;;
69910;SDS011;63555;49.920;17.868;2023-07-13T15:34:52;3.13;;;1.80;;
69910;SDS011;63555;49.920;17.868;2023-07-13T15:39:52;4.73;;;4.33;;
69910;SDS011;63555;49.920;17.868;2023-07-13T15:44:53;4.83;;;1.60;;
69910;SDS011;63555;49.920;17.868;2023-07-13T15:49:53;5.37;;;1.70;;
69910;SDS011;63555;49.920;17.868;2023-07-13T15:54:55;3.88;;;1.83;;
69910;SDS011;63555;49.920;17.868;2023-07-13T15:59:59;2.90;;;2.10;;
69910;SDS011;63555;49.920;17.868;2023-07-13T16:04:59;3.53;;;1.83;;
69910;SDS011;63555;49.920;17.868;2023-07-13T16:10:00;3.53;;;1.77;;
69910;SDS011;63555;49.920;17.868;2023-07-13T16:15:00;3.10;;;2.00;;
69910;SDS011;63555;49.920;17.868;2023-07-13T16:20:01;3.70;;;2.00;;
69910;SDS011;63555;49.920;17.868;2023-07-13T16:25:01;3.37;;;2.00;;
69910;SDS011;63555;49.920;17.868;2023-07-13T16:30:24;2.60;;;1.83;;
69910;SDS011;63555;49.920;17.868;2023-07-13T16:35:26;3.33;;;2.10;;
69910;SDS011;63555;49.920;17.868;2023-07-13T16:40:32;4.75;;;2.10;;
69910;SDS011;63555;49.920;17.868;2023-07-13T16:45:34;2.30;;;1.50;;
69910;SDS011;63555;49.920;17.868;2023-07-13T16:50:35;3.10;;;1.00;;
69910;SDS011;63555;49.920;17.868;2023-07-13T16:55:35;3.10;;;1.20;;
69910;SDS011;63555;49.920;17.868;2023-07-13T17:00:36;2.67;;;1.20;;
69910;SDS011;63555;49.920;17.868;2023-07-13T17:05:41;4.47;;;1.07;;
69910;SDS011;63555;49.920;17.868;2023-07-13T17:10:46;3.35;;;1.10;;
69910;SDS011;63555;49.920;17.868;2023-07-13T17:15:49;2.65;;;1.15;;
69910;SDS011;63555;49.920;17.868;2023-07-13T17:20:53;4.40;;;1.30;;
69910;SDS011;63555;49.920;17.868;2023-07-13T17:25:54;3.75;;;1.30;;
69910;SDS011;63555;49.920;17.868;2023-07-13T17:30:56;2.77;;;1.23;;
69910;SDS011;63555;49.920;17.868;2023-07-13T17:35:59;5.90;;;1.50;;
69910;SDS011;63555;49.920;17.868;2023-07-13T17:41:12;3.47;;;1.23;;
69910;SDS011;63555;49.920;17.868;2023-07-13T17:46:29;2.30;;;1.20;;
69910;SDS011;63555;49.920;17.868;2023-07-13T17:51:31;4.45;;;1.45;;
69910;SDS011;63555;49.920;17.868;2023-07-13T17:56:32;4.87;;;1.50;;
69910;SDS011;63555;49.920;17.868;2023-07-13T18:01:34;3.92;;;1.45;;
69910;SDS011;63555;49.920;17.868;2023-07-13T18:06:40;3.45;;;1.48;;
69910;SDS011;63555;49.920;17.868;2023-07-13T18:11:44;2.42;;;1.20;;
69910;SDS011;63555;49.920;17.868;2023-07-13T18:16:48;5.33;;;1.30;;
69910;SDS011;63555;49.920;17.868;2023-07-13T18:21:53;4.97;;;1.50;;
69910;SDS011;63555;49.920;17.868;2023-07-13T18:26:54;2.73;;;1.30;;
69910;SDS011;63555;49.920;17.868;2023-07-13T18:31:54;5.03;;;1.40;;
69910;SDS011;63555;49.920;17.868;2023-07-13T18:36:57;2.90;;;1.30;;
69910;SDS011;63555;49.920;17.868;2023-07-13T18:41:58;4.10;;;1.50;;
69910;SDS011;63555;49.920;17.868;2023-07-13T18:46:58;4.95;;;2.00;;
69910;SDS011;63555;49.920;17.868;2023-07-13T18:51:59;3.70;;;1.70;;
69910;SDS011;63555;49.920;17.868;2023-07-13T18:56:59;3.17;;;1.63;;
69910;SDS011;63555;49.920;17.868;2023-07-13T19:02:00;4.60;;;1.95;;
69910;SDS011;63555;49.920;17.868;2023-07-13T19:07:01;4.78;;;2.00;;
69910;SDS011;63555;49.920;17.868;2023-07-13T19:12:04;3.78;;;1.90;;
69910;SDS011;63555;49.920;17.868;2023-07-13T19:17:14;3.83;;;2.00;;
69910;SDS011;63555;49.920;17.868;2023-07-13T19:22:16;3.17;;;2.03;;
69910;SDS011;63555;49.920;17.868;2023-07-13T19:27:19;5.87;;;2.50;;
69910;SDS011;63555;49.920;17.868;2023-07-13T19:32:19;4.00;;;2.63;;
69910;SDS011;63555;49.920;17.868;2023-07-13T19:37:21;3.63;;;2.17;;
69910;SDS011;63555;49.920;17.868;2023-07-13T19:42:24;3.40;;;2.05;;
69910;SDS011;63555;49.920;17.868;2023-07-13T19:47:25;8.25;;;2.67;;
69910;SDS011;63555;49.920;17.868;2023-07-13T19:52:26;4.53;;;2.20;;
69910;SDS011;63555;49.920;17.868;2023-07-13T19:57:28;6.37;;;2.27;;
69910;SDS011;63555;49.920;17.868;2023-07-13T20:02:29;6.72;;;2.50;;
69910;SDS011;63555;49.920;17.868;2023-07-13T20:07:29;6.63;;;2.37;;
69910;SDS011;63555;49.920;17.868;2023-07-13T20:12:33;5.63;;;2.53;;
69910;SDS011;63555;49.920;17.868;2023-07-13T20:17:36;5.00;;;2.40;;
69910;SDS011;63555;49.920;17.868;2023-07-13T20:22:38;4.47;;;2.23;;
69910;SDS011;63555;49.920;17.868;2023-07-13T20:27:38;6.50;;;2.70;;
69910;SDS011;63555;49.920;17.868;2023-07-13T20:32:39;6.33;;;2.67;;
69910;SDS011;63555;49.920;17.868;2023-07-13T20:37:39;6.35;;;2.95;;
69910;SDS011;63555;49.920;17.868;2023-07-13T20:42:42;4.65;;;3.35;;
69910;SDS011;63555;49.920;17.868;2023-07-13T20:47:42;5.20;;;3.50;;
69910;SDS011;63555;49.920;17.868;2023-07-13T20:52:43;6.63;;;3.10;;
69910;SDS011;63555;49.920;17.868;2023-07-13T20:57:48;8.15;;;3.55;;
69910;SDS011;63555;49.920;17.868;2023-07-13T21:02:50;7.07;;;3.30;;
69910;SDS011;63555;49.920;17.868;2023-07-13T21:07:55;9.00;;;3.67;;
69910;SDS011;63555;49.920;17.868;2023-07-13T21:12:56;7.67;;;3.53;;
69910;SDS011;63555;49.920;17.868;2023-07-13T21:17:57;5.22;;;3.30;;
69910;SDS011;63555;49.920;17.868;2023-07-13T21:22:59;5.75;;;3.25;;
69910;SDS011;63555;49.920;17.868;2023-07-13T21:28:00;6.80;;;3.47;;
69910;SDS011;63555;49.920;17.868;2023-07-13T21:33:00;4.83;;;3.10;;
69910;SDS011;63555;49.920;17.868;2023-07-13T21:38:02;8.98;;;3.33;;
69910;SDS011;63555;49.920;17.868;2023-07-13T21:43:02;5.67;;;3.57;;
69910;SDS011;63555;49.920;17.868;2023-07-13T21:48:03;6.43;;;3.40;;
69910;SDS011;63555;49.920;17.868;2023-07-13T21:53:14;7.00;;;3.40;;
69910;SDS011;63555;49.920;17.868;2023-07-13T21:58:36;7.15;;;3.28;;
69910;SDS011;63555;49.920;17.868;2023-07-13T22:03:36;7.20;;;3.40;;
69910;SDS011;63555;49.920;17.868;2023-07-13T22:08:37;4.97;;;3.33;;
69910;SDS011;63555;49.920;17.868;2023-07-13T22:13:38;10.00;;;3.17;;
69910;SDS011;63555;49.920;17.868;2023-07-13T22:18:39;6.03;;;3.40;;
69910;SDS011;63555;49.920;17.868;2023-07-13T22:23:40;7.13;;;3.30;;
69910;SDS011;63555;49.920;17.868;2023-07-13T22:28:41;5.47;;;3.00;;
69910;SDS011;63555;49.920;17.868;2023-07-13T22:33:43;8.57;;;3.77;;
69910;SDS011;63555;49.920;17.868;2023-07-13T22:38:43;6.70;;;3.08;;
69910;SDS011;63555;49.920;17.868;2023-07-13T22:43:44;12.17;;;4.10;;
69910;SDS011;63555;49.920;17.868;2023-07-13T22:48:53;7.05;;;3.92;;
69910;SDS011;63555;49.920;17.868;2023-07-13T22:53:58;7.97;;;3.80;;
69910;SDS011;63555;49.920;17.868;2023-07-13T22:58:59;7.73;;;3.87;;
69910;SDS011;63555;49.920;17.868;2023-07-13T23:03:59;10.43;;;3.77;;
69910;SDS011;63555;49.920;17.868;2023-07-13T23:09:00;10.70;;;4.00;;
69910;SDS011;63555;49.920;17.868;2023-07-13T23:14:05;10.70;;;3.88;;
69910;SDS011;63555;49.920;17.868;2023-07-13T23:19:10;8.97;;;3.47;;
69910;SDS011;63555;49.920;17.868;2023-07-13T23:24:19;12.33;;;3.73;;
69910;SDS011;63555;49.920;17.868;2023-07-13T23:29:20;6.77;;;3.57;;
69910;SDS011;63555;49.920;17.868;2023-07-13T23:34:20;9.07;;;3.77;;
69910;SDS011;63555;49.920;17.868;2023-07-13T23:39:21;9.65;;;3.40;;
69910;SDS011;63555;49.920;17.868;2023-07-13T23:44:21;13.35;;;4.20;;
69910;SDS011;63555;49.920;17.868;2023-07-13T23:54:30;10.30;;;4.07;;
69910;SDS011;63555;49.920;17.868;2023-07-13T23:59:32;20.70;;;4.50;;
